createdAt,value
2023-04-12T00:02:27.807Z,82.13
2023-04-12T00:04:57.917Z,82.86
2023-04-12T00:07:25.961Z,84.47
2023-04-12T00:09:53.872Z,82.85
2023-04-12T00:12:22.228Z,82.01
2023-04-12T00:14:50.101Z,81.87
2023-04-12T00:17:19.570Z,81.15
2023-04-12T00:19:50.176Z,83.32
2023-04-12T00:22:18.177Z,83.45
2023-04-12T00:24:47.557Z,84.29
2023-04-12T00:27:16.065Z,84.96
2023-04-12T00:29:44.313Z,85.90
2023-04-12T00:32:12.244Z,86.61
2023-04-12T00:34:40.572Z,85.40
2023-04-12T00:37:08.554Z,84.13
2023-04-12T00:39:36.430Z,83.00
2023-04-12T00:42:05.584Z,84.01
2023-04-12T00:44:34.476Z,84.37
2023-04-12T00:47:05.521Z,85.02
2023-04-12T00:49:34.582Z,83.92
2023-04-12T00:52:05.739Z,86.30
2023-04-12T00:54:35.135Z,84.96
2023-04-12T00:57:03.493Z,86.09
2023-04-12T00:59:31.423Z,85.47
2023-04-12T01:02:00.493Z,86.50
2023-04-12T01:04:28.712Z,86.24
2023-04-12T01:07:17.798Z,86.51
2023-04-12T01:10:15.334Z,85.60
2023-04-12T01:13:08.688Z,85.88
2023-04-12T01:15:41.992Z,85.08
2023-04-12T01:18:14.872Z,85.77
2023-04-12T01:20:50.959Z,86.32
2023-04-12T01:23:24.873Z,85.57
2023-04-12T01:26:08.824Z,87.72
2023-04-12T01:28:39.217Z,86.73
2023-04-12T01:31:09.029Z,83.61
2023-04-12T01:33:38.569Z,85.59
2023-04-12T01:36:32.813Z,87.35
2023-04-12T01:39:05.020Z,87.24
2023-04-12T01:41:33.609Z,86.23
2023-04-12T01:44:01.927Z,87.39
2023-04-12T01:46:30.338Z,85.47
2023-04-12T01:48:59.835Z,84.32
2023-04-12T01:51:40.694Z,84.72
2023-04-12T01:54:14.226Z,84.85
2023-04-12T01:56:47.901Z,82.72
2023-04-12T01:59:16.636Z,84.51
2023-04-12T02:01:47.220Z,85.02
2023-04-12T02:04:16.821Z,86.06
2023-04-12T02:06:46.478Z,86.27
2023-04-12T02:09:14.423Z,86.34
2023-04-12T02:11:46.887Z,86.48
2023-04-12T02:14:15.602Z,86.52
2023-04-12T02:16:46.081Z,87.05
2023-04-12T02:19:14.344Z,86.12
2023-04-12T02:21:44.265Z,87.69
2023-04-12T02:24:13.003Z,86.21
2023-04-12T02:26:40.952Z,86.58
2023-04-12T02:29:10.583Z,84.51
2023-04-12T02:31:39.304Z,86.88
2023-04-12T02:34:07.998Z,88.43
2023-04-12T02:36:38.123Z,88.43
2023-04-12T02:39:07.942Z,87.36
2023-04-12T02:41:36.762Z,89.21
2023-04-12T02:44:06.256Z,91.61
2023-04-12T02:46:34.518Z,90.49
2023-04-12T02:49:03.718Z,88.80
2023-04-12T02:51:32.046Z,90.18
2023-04-12T02:54:01.493Z,89.45
2023-04-12T02:56:30.498Z,89.13
2023-04-12T02:58:59.059Z,88.33
2023-04-12T03:01:29.049Z,90.07
2023-04-12T03:03:58.690Z,89.54
2023-04-12T03:06:27.458Z,89.07
2023-04-12T03:08:55.788Z,89.43
2023-04-12T03:11:24.159Z,88.21
2023-04-12T03:13:52.661Z,88.80
2023-04-12T03:16:26.105Z,89.15
2023-04-12T03:18:57.041Z,88.83
2023-04-12T03:21:26.557Z,90.94
2023-04-12T03:23:56.223Z,89.11
2023-04-12T03:26:26.788Z,90.62
2023-04-12T03:29:01.130Z,91.18
2023-04-12T03:31:29.790Z,91.48
2023-04-12T03:33:59.237Z,91.83
2023-04-12T03:36:29.922Z,93.16
2023-04-12T03:38:58.418Z,92.66
2023-04-12T03:41:28.459Z,91.11
2023-04-12T03:43:57.011Z,91.60
2023-04-12T03:46:26.232Z,93.74
2023-04-12T03:48:54.731Z,91.42
2023-04-12T03:51:27.026Z,91.79
2023-04-12T03:53:56.368Z,90.51
2023-04-12T03:56:24.588Z,91.78
2023-04-12T03:58:53.194Z,92.83
2023-04-12T04:01:22.149Z,90.26
2023-04-12T04:03:51.329Z,89.44
2023-04-12T04:06:19.592Z,90.98
2023-04-12T04:08:47.683Z,90.92
2023-04-12T04:11:16.583Z,93.05
2023-04-12T04:13:46.844Z,91.33
2023-04-12T04:16:18.271Z,92.42
2023-04-12T04:18:46.752Z,91.74
2023-04-12T04:21:15.270Z,90.97
2023-04-12T04:23:48.157Z,89.93
2023-04-12T04:26:17.184Z,92.16
2023-04-12T04:28:46.701Z,93.70
2023-04-12T04:31:17.828Z,91.52
2023-04-12T04:33:48.725Z,92.21
2023-04-12T04:36:16.888Z,92.59
2023-04-12T04:38:46.214Z,91.92
2023-04-12T04:41:15.650Z,90.11
2023-04-12T04:43:46.986Z,87.86
2023-04-12T04:46:15.629Z,84.17
2023-04-12T04:48:43.775Z,79.69
2023-04-12T04:51:11.702Z,81.50
2023-04-12T04:53:41.026Z,76.32
2023-04-12T04:56:11.612Z,70.56
2023-04-12T04:58:40.811Z,71.61
2023-04-12T05:01:09.396Z,70.37
2023-04-12T05:03:38.053Z,71.08
2023-04-12T05:06:06.905Z,67.35
2023-04-12T05:08:35.731Z,67.80
2023-04-12T05:11:04.278Z,68.51
2023-04-12T05:13:32.704Z,67.67
2023-04-12T05:16:00.678Z,68.49
2023-04-12T05:18:28.579Z,68.82
2023-04-12T05:20:57.022Z,70.18
2023-04-12T05:23:25.374Z,68.66
2023-04-12T05:25:53.634Z,67.74
2023-04-12T05:28:22.099Z,69.19
2023-04-12T05:30:50.549Z,70.33
2023-04-12T05:33:19.520Z,69.27
2023-04-12T05:35:47.915Z,67.90
2023-04-12T05:38:15.860Z,63.33
2023-04-12T05:40:44.438Z,62.63
2023-04-12T05:43:13.987Z,64.05
2023-04-12T05:45:42.161Z,66.27
2023-04-12T05:48:10.638Z,68.78
2023-04-12T05:50:39.119Z,66.58
2023-04-12T05:53:07.363Z,67.78
2023-04-12T05:55:37.893Z,66.18
2023-04-12T05:58:07.426Z,67.56
2023-04-12T06:00:45.709Z,66.86
2023-04-12T06:03:14.386Z,65.08
2023-04-12T06:05:42.363Z,67.05
2023-04-12T06:08:10.566Z,66.13
2023-04-12T06:10:40.561Z,63.02
2023-04-12T06:13:08.855Z,64.44
2023-04-12T06:15:37.411Z,63.95
2023-04-12T06:18:07.573Z,63.87
2023-04-12T06:20:35.744Z,64.05
2023-04-12T06:23:06.819Z,65.32
2023-04-12T06:25:35.739Z,60.84
2023-04-12T06:28:04.674Z,58.14
2023-04-12T06:30:33.846Z,56.63
2023-04-12T06:33:01.871Z,57.73
2023-04-12T06:35:29.840Z,58.89
2023-04-12T06:37:58.137Z,61.40
2023-04-12T06:40:26.319Z,59.47
2023-04-12T06:42:54.305Z,61.01
2023-04-12T06:45:23.180Z,59.47
2023-04-12T06:47:51.184Z,59.03
2023-04-12T06:50:19.086Z,60.04
2023-04-12T06:52:48.633Z,60.22
2023-04-12T06:55:16.682Z,61.24
2023-04-12T06:57:46.369Z,58.62
2023-04-12T07:00:16.661Z,56.63
2023-04-12T07:02:44.722Z,56.64
2023-04-12T07:05:13.879Z,57.53
2023-04-12T07:07:42.442Z,58.95
2023-04-12T07:10:10.949Z,58.44
2023-04-12T07:12:38.897Z,60.12
2023-04-12T07:15:07.720Z,58.27
2023-04-12T07:17:35.828Z,56.98
2023-04-12T07:20:04.076Z,56.45
2023-04-12T07:22:32.350Z,55.64
2023-04-12T07:25:00.314Z,58.09
2023-04-12T07:27:28.300Z,58.51
2023-04-12T07:29:58.645Z,56.29
2023-04-12T07:32:27.614Z,54.70
2023-04-12T07:34:55.742Z,54.93
2023-04-12T07:37:24.116Z,53.02
2023-04-12T07:39:52.078Z,54.37
2023-04-12T07:42:20.052Z,53.91
2023-04-12T07:44:48.381Z,52.13
2023-04-12T07:47:16.280Z,51.88
2023-04-12T07:49:44.240Z,52.97
2023-04-12T07:52:14.211Z,51.94
2023-04-12T07:54:42.799Z,52.34
2023-04-12T07:57:11.030Z,52.07
2023-04-12T07:59:39.440Z,51.34
2023-04-12T08:02:07.553Z,49.02
2023-04-12T08:04:37.553Z,46.47
2023-04-12T08:07:05.586Z,49.78
2023-04-12T08:09:33.632Z,49.29
2023-04-12T08:12:02.205Z,49.39
2023-04-12T08:14:30.173Z,47.34
2023-04-12T08:16:58.330Z,48.46
2023-04-12T08:19:27.472Z,46.37
2023-04-12T08:21:55.641Z,47.69
2023-04-12T08:24:25.307Z,45.20
2023-04-12T08:26:53.769Z,45.19
2023-04-12T08:29:21.659Z,45.54
2023-04-12T08:31:49.617Z,45.70
2023-04-12T08:34:18.021Z,46.54
2023-04-12T08:36:47.645Z,45.08
2023-04-12T08:39:15.747Z,43.01
2023-04-12T08:41:44.213Z,44.34
2023-04-12T08:44:12.526Z,46.00
2023-04-12T08:46:41.070Z,42.37
2023-04-12T08:49:11.646Z,43.03
2023-04-12T08:51:40.181Z,41.90
2023-04-12T08:54:08.146Z,41.60
2023-04-12T08:56:36.723Z,42.27
2023-04-12T08:59:04.826Z,40.56
2023-04-12T09:01:33.768Z,39.38
2023-04-12T09:04:07.108Z,40.92
2023-04-12T09:06:37.394Z,39.82
2023-04-12T09:09:08.116Z,39.57
2023-04-12T09:11:36.623Z,40.55
2023-04-12T09:14:06.390Z,39.46
2023-04-12T09:16:36.358Z,40.14
2023-04-12T09:19:05.238Z,39.23
2023-04-12T09:21:37.296Z,39.69
2023-04-12T09:24:13.545Z,38.05
2023-04-12T09:26:42.621Z,37.60
2023-04-12T09:29:25.802Z,34.61
2023-04-12T09:32:01.480Z,37.45
2023-04-12T09:34:32.328Z,37.08
2023-04-12T09:37:00.374Z,38.11
2023-04-12T09:39:34.746Z,39.51
2023-04-12T09:42:14.876Z,33.90
2023-04-12T09:44:54.765Z,32.77
2023-04-12T09:47:23.171Z,35.54
2023-04-12T09:49:51.158Z,34.11
2023-04-12T09:52:20.334Z,35.51
2023-04-12T09:54:51.799Z,35.05
2023-04-12T09:57:23.383Z,35.96
2023-04-12T09:59:53.046Z,37.22
2023-04-12T10:02:28.468Z,35.69
2023-04-12T10:04:57.142Z,35.40
2023-04-12T10:07:27.438Z,34.26
2023-04-12T10:09:58.689Z,32.92
2023-04-12T10:12:29.328Z,33.64
2023-04-12T10:14:58.313Z,34.46
2023-04-12T10:17:27.079Z,30.43
2023-04-12T10:19:55.312Z,32.15
2023-04-12T10:22:23.284Z,31.42
2023-04-12T10:24:51.723Z,30.96
2023-04-12T10:27:37.754Z,30.53
2023-04-12T10:30:28.955Z,34.16
2023-04-12T10:33:03.270Z,32.97
2023-04-12T10:35:49.984Z,33.59
2023-04-12T10:38:18.763Z,30.38
2023-04-12T10:41:15.247Z,31.80
2023-04-12T10:43:50.207Z,31.27
2023-04-12T10:46:40.420Z,30.14
2023-04-12T10:49:09.846Z,30.36
2023-04-12T10:51:38.537Z,29.97
2023-04-12T10:54:12.476Z,30.32
2023-04-12T10:56:43.483Z,29.02
2023-04-12T10:59:13.520Z,28.32
2023-04-12T11:01:46.670Z,30.20
2023-04-12T11:04:22.948Z,30.24
2023-04-12T11:06:53.406Z,27.90
2023-04-12T11:09:25.595Z,28.38
2023-04-12T11:12:09.571Z,24.91
2023-04-12T11:14:44.808Z,22.75
2023-04-12T11:17:13.356Z,23.37
2023-04-12T11:19:51.765Z,21.99
2023-04-12T11:22:23.476Z,22.08
2023-04-12T11:24:56.736Z,22.66
2023-04-12T11:27:26.590Z,21.50
2023-04-12T11:29:59.411Z,23.12
2023-04-12T11:32:31.576Z,21.62
2023-04-12T11:34:59.583Z,22.30
2023-04-12T11:37:31.077Z,22.68
2023-04-12T11:40:07.444Z,23.13
2023-04-12T11:42:36.133Z,21.48
2023-04-12T11:45:09.507Z,20.88
2023-04-12T11:47:45.576Z,22.61
2023-04-12T11:50:15.048Z,22.11
2023-04-12T11:52:43.326Z,23.46
2023-04-12T11:55:11.623Z,27.30
2023-04-12T11:57:39.690Z,27.44
2023-04-12T12:00:08.708Z,30.06
2023-04-12T12:02:49.012Z,32.09
2023-04-12T12:05:24.894Z,32.63
2023-04-12T12:07:54.329Z,29.67
2023-04-12T12:10:37.762Z,28.08
2023-04-12T12:13:13.468Z,30.58
2023-04-12T12:15:45.372Z,30.10
2023-04-12T12:18:15.368Z,30.82
2023-04-12T12:20:49.395Z,32.07
2023-04-12T12:23:38.127Z,35.15
2023-04-12T12:26:19.056Z,32.58
2023-04-12T12:28:54.969Z,31.43
2023-04-12T12:31:24.646Z,30.19
2023-04-12T12:33:58.540Z,30.13
2023-04-12T12:36:38.999Z,29.36
2023-04-12T12:39:12.759Z,30.20
2023-04-12T12:41:41.710Z,30.61
2023-04-12T12:44:12.455Z,30.25
2023-04-12T12:49:11.828Z,33.26
2023-04-12T12:51:43.484Z,34.19
2023-04-12T12:54:14.324Z,33.54
2023-04-12T12:56:46.256Z,31.59
2023-04-12T12:59:14.582Z,30.98
2023-04-12T13:01:42.549Z,30.66
2023-04-12T13:04:10.624Z,32.57
2023-04-12T13:06:39.512Z,30.87
2023-04-12T13:09:07.453Z,29.84
2023-04-12T13:11:35.353Z,30.62
2023-04-12T13:14:03.744Z,31.14
2023-04-12T13:16:31.889Z,29.48
2023-04-12T13:19:00.100Z,31.42
2023-04-12T13:21:28.615Z,30.35
2023-04-12T13:23:58.578Z,31.83
2023-04-12T13:26:26.510Z,31.26
2023-04-12T13:28:54.806Z,29.90
2023-04-12T13:31:22.779Z,31.38
2023-04-12T13:33:50.756Z,30.49
2023-04-12T13:36:18.999Z,31.11
2023-04-12T13:38:47.736Z,32.71
2023-04-12T13:41:15.705Z,32.08
2023-04-12T13:43:43.980Z,31.76
2023-04-12T13:46:13.226Z,30.58
2023-04-12T13:48:41.282Z,29.76
2023-04-12T13:51:10.084Z,32.63
2023-04-12T13:53:40.610Z,30.32
2023-04-12T13:56:08.669Z,28.18
2023-04-12T13:58:41.612Z,30.59
2023-04-12T14:01:10.115Z,30.55
2023-04-12T14:03:38.487Z,29.67
2023-04-12T14:06:07.607Z,32.18
2023-04-12T14:08:35.977Z,31.91
2023-04-12T14:11:04.458Z,30.76
2023-04-12T14:13:32.367Z,28.68
2023-04-12T14:16:00.275Z,28.59
2023-04-12T14:18:28.659Z,26.35
2023-04-12T14:20:57.968Z,25.88
2023-04-12T14:23:27.615Z,28.19
2023-04-12T14:25:56.076Z,30.48
2023-04-12T14:28:29.764Z,25.84
2023-04-12T14:30:58.370Z,27.95
2023-04-12T14:33:26.348Z,27.56
2023-04-12T14:35:54.327Z,28.92
2023-04-12T14:38:23.031Z,29.34
2023-04-12T14:40:54.601Z,26.95
2023-04-12T14:43:22.888Z,25.99
2023-04-12T14:45:51.186Z,26.97
2023-04-12T14:48:21.297Z,26.65
2023-04-12T14:50:49.637Z,27.94
2023-04-12T14:53:18.969Z,27.56
2023-04-12T14:55:47.100Z,27.35
2023-04-12T14:58:15.332Z,26.40
2023-04-12T15:00:43.280Z,25.84
2023-04-12T15:03:11.486Z,28.68
2023-04-12T15:05:39.950Z,28.03
2023-04-12T15:08:07.886Z,28.17
2023-04-12T15:10:38.700Z,25.71
2023-04-12T15:13:08.627Z,26.42
2023-04-12T15:15:36.622Z,26.33
2023-04-12T15:18:04.777Z,24.80
2023-04-12T15:20:33.324Z,27.62
2023-04-12T15:23:01.349Z,26.27
2023-04-12T15:25:30.971Z,26.42
2023-04-12T15:27:59.481Z,27.58
2023-04-12T15:30:27.989Z,27.93
2023-04-12T15:32:55.870Z,28.68
2023-04-12T15:35:27.014Z,26.64
2023-04-12T15:37:55.744Z,27.19
2023-04-12T15:40:24.646Z,26.15
2023-04-12T15:42:52.730Z,26.91
2023-04-12T15:45:22.360Z,27.47
2023-04-12T15:47:51.012Z,26.74
2023-04-12T15:50:19.204Z,26.87
2023-04-12T15:52:48.721Z,28.33
2023-04-12T15:55:22.036Z,27.78
2023-04-12T15:57:49.957Z,27.01
2023-04-12T16:00:21.416Z,27.80
2023-04-12T16:02:57.834Z,28.27
2023-04-12T16:05:26.844Z,27.89
2023-04-12T16:07:56.829Z,27.92
2023-04-12T16:10:26.717Z,26.78
2023-04-12T16:12:56.734Z,28.09
2023-04-12T16:15:25.089Z,26.74
2023-04-12T16:17:56.330Z,27.00
2023-04-12T16:20:24.614Z,26.44
2023-04-12T16:22:58.297Z,27.81
2023-04-12T16:25:31.746Z,27.58
2023-04-12T16:28:02.654Z,27.32
2023-04-12T16:30:34.236Z,30.39
2023-04-12T16:33:02.352Z,33.02
2023-04-12T16:35:31.098Z,30.38
2023-04-12T16:37:59.005Z,31.63
2023-04-12T16:40:26.961Z,33.43
2023-04-12T16:42:55.237Z,33.89
2023-04-12T16:45:24.111Z,37.58
2023-04-12T16:47:52.074Z,37.62
2023-04-12T16:50:22.175Z,36.54
2023-04-12T16:52:51.930Z,42.12
2023-04-12T16:55:20.874Z,39.66
2023-04-12T16:57:53.238Z,40.64
2023-04-12T17:00:24.739Z,41.13
2023-04-12T17:02:54.124Z,43.23
2023-04-12T17:05:23.294Z,42.08
2023-04-12T17:07:54.285Z,44.04
2023-04-12T17:10:24.702Z,45.92
2023-04-12T17:12:54.902Z,47.26
2023-04-12T17:15:25.542Z,47.90
2023-04-12T17:17:57.689Z,54.07
2023-04-12T17:20:26.132Z,56.50
2023-04-12T17:22:55.211Z,56.10
2023-04-12T17:25:24.902Z,56.88
2023-04-12T17:27:54.917Z,56.09
2023-04-12T17:30:23.735Z,55.43
2023-04-12T17:32:53.818Z,54.87
2023-04-12T17:35:22.326Z,54.75
2023-04-12T17:37:50.235Z,56.25
2023-04-12T17:40:18.665Z,54.67
2023-04-12T17:42:46.961Z,52.39
2023-04-12T17:45:14.984Z,53.75
2023-04-12T17:47:43.042Z,56.65
2023-04-12T17:50:12.138Z,57.58
2023-04-12T17:52:40.157Z,59.60
2023-04-12T17:55:12.580Z,59.65
2023-04-12T17:57:41.852Z,60.34
2023-04-12T18:00:12.005Z,60.17
2023-04-12T18:02:42.267Z,56.29
2023-04-12T18:05:14.096Z,58.25
2023-04-12T18:07:42.806Z,59.42
2023-04-12T18:10:21.122Z,58.18
2023-04-12T18:12:51.357Z,57.02
2023-04-12T18:15:20.421Z,58.89
2023-04-12T18:17:52.125Z,59.56
2023-04-12T18:20:21.559Z,52.81
2023-04-12T18:22:49.483Z,56.05
2023-04-12T18:25:17.394Z,61.51
2023-04-12T18:27:48.699Z,62.29
2023-04-12T18:30:19.122Z,65.27
2023-04-12T18:32:48.144Z,64.69
2023-04-12T18:35:16.363Z,63.58
2023-04-12T18:37:44.607Z,63.35
2023-04-12T18:40:13.497Z,66.54
2023-04-12T18:42:45.837Z,67.24
2023-04-12T18:45:14.594Z,65.20
2023-04-12T18:47:42.570Z,65.15
2023-04-12T18:50:11.703Z,65.61
2023-04-12T18:52:40.088Z,66.73
2023-04-12T18:55:08.586Z,68.55
2023-04-12T18:57:36.691Z,66.47
2023-04-12T19:00:14.025Z,67.73
2023-04-12T19:02:41.951Z,69.02
2023-04-12T19:05:12.747Z,67.05
2023-04-12T19:07:41.334Z,68.62
2023-04-12T19:10:09.739Z,68.96
2023-04-12T19:12:38.423Z,70.22
2023-04-12T19:15:08.494Z,69.00
2023-04-12T19:17:39.718Z,69.37
2023-04-12T19:20:12.101Z,69.60
2023-04-12T19:22:41.133Z,72.83
2023-04-12T19:25:10.221Z,71.52
2023-04-12T19:27:38.888Z,70.39
2023-04-12T19:30:07.531Z,69.09
2023-04-12T19:32:35.867Z,71.22
2023-04-12T19:35:03.974Z,72.57
2023-04-12T19:37:34.372Z,72.69
2023-04-12T19:40:02.673Z,71.18
2023-04-12T19:42:30.896Z,73.94
2023-04-12T19:45:00.642Z,72.34
2023-04-12T19:47:29.256Z,73.73
2023-04-12T19:49:57.406Z,73.41
2023-04-12T19:52:27.506Z,72.77
2023-04-12T19:54:57.471Z,73.13
2023-04-12T19:57:27.819Z,74.59
2023-04-12T19:59:56.131Z,73.31
2023-04-12T20:02:24.802Z,75.08
2023-04-12T20:04:53.653Z,75.24
2023-04-12T20:07:21.655Z,73.84
2023-04-12T20:09:50.032Z,75.00
2023-04-12T20:12:19.435Z,73.24
2023-04-12T20:14:47.333Z,75.98
2023-04-12T20:17:15.391Z,74.78
2023-04-12T20:19:43.729Z,74.18
2023-04-12T20:22:12.613Z,76.21
2023-04-12T20:24:40.585Z,72.12
2023-04-12T20:27:09.725Z,72.31
2023-04-12T20:29:37.795Z,73.05
2023-04-12T20:32:05.875Z,74.94
2023-04-12T20:34:34.464Z,75.44
2023-04-12T20:37:02.360Z,75.99
2023-04-12T20:39:30.946Z,76.48
2023-04-12T20:42:01.365Z,76.79
2023-04-12T20:44:29.311Z,77.89
2023-04-12T20:46:57.834Z,75.19
2023-04-12T20:49:28.125Z,76.54
2023-04-12T20:51:59.361Z,75.67
2023-04-12T20:54:30.296Z,76.34
2023-04-12T20:57:00.156Z,74.78
2023-04-12T20:59:30.454Z,72.45
2023-04-12T21:01:59.257Z,73.45
2023-04-12T21:04:28.032Z,75.23
2023-04-12T21:06:57.677Z,75.82
2023-04-12T21:09:25.691Z,76.39
2023-04-12T21:11:53.787Z,77.80
2023-04-12T21:14:22.059Z,78.36
2023-04-12T21:16:50.095Z,79.41
2023-04-12T21:19:18.617Z,78.29
2023-04-12T21:21:47.358Z,80.32
2023-04-12T21:24:15.414Z,80.78
2023-04-12T21:26:43.812Z,78.45
2023-04-12T21:29:12.083Z,79.60
2023-04-12T21:31:41.852Z,77.75
2023-04-12T21:34:10.375Z,78.48
2023-04-12T21:36:38.904Z,76.59
2023-04-12T21:39:10.652Z,76.23
2023-04-12T21:41:38.992Z,75.20
2023-04-12T21:44:07.467Z,75.25
2023-04-12T21:46:35.776Z,73.76
2023-04-12T21:49:05.245Z,72.73
2023-04-12T21:51:33.333Z,75.01
2023-04-12T21:54:01.334Z,73.82
2023-04-12T21:56:29.597Z,74.37
2023-04-12T21:59:00.031Z,76.34
2023-04-12T22:01:28.136Z,75.97
2023-04-12T22:03:57.446Z,73.98
2023-04-12T22:06:25.529Z,72.43
2023-04-12T22:08:53.976Z,75.19
2023-04-12T22:11:22.275Z,73.06
2023-04-12T22:13:50.415Z,72.60
2023-04-12T22:16:18.292Z,74.13
2023-04-12T22:18:47.093Z,72.09
2023-04-12T22:21:15.510Z,72.64
2023-04-12T22:23:44.050Z,68.28
2023-04-12T22:26:13.614Z,69.13
2023-04-12T22:28:42.819Z,73.34
2023-04-12T22:31:14.688Z,70.25
2023-04-12T22:33:43.964Z,75.64
2023-04-12T22:36:11.924Z,67.91
2023-04-12T22:38:40.357Z,74.01
2023-04-12T22:41:08.629Z,72.46
2023-04-12T22:43:43.110Z,73.90
2023-04-12T22:46:18.902Z,73.68
2023-04-12T22:48:50.112Z,75.68
2023-04-12T22:51:18.401Z,74.72
2023-04-12T22:53:46.368Z,78.56
2023-04-12T22:56:14.359Z,78.30
2023-04-12T22:58:43.335Z,77.90
2023-04-12T23:01:11.277Z,77.46
2023-04-12T23:03:41.798Z,78.74
2023-04-12T23:06:13.001Z,76.04
2023-04-12T23:08:41.008Z,79.47
2023-04-12T23:11:09.284Z,77.73
2023-04-12T23:13:37.322Z,73.87
2023-04-12T23:16:07.220Z,73.67
2023-04-12T23:18:36.109Z,72.58
2023-04-12T23:21:04.150Z,76.64
2023-04-12T23:23:32.074Z,73.00
2023-04-12T23:26:01.172Z,72.65
2023-04-12T23:28:29.327Z,74.48
2023-04-12T23:30:58.049Z,71.37
2023-04-12T23:33:26.417Z,70.78
2023-04-12T23:35:56.274Z,78.08
2023-04-12T23:38:26.331Z,77.62
2023-04-12T23:40:54.696Z,71.02
2023-04-12T23:43:23.524Z,71.67
2023-04-12T23:45:55.604Z,70.78
2023-04-12T23:48:24.616Z,75.49
2023-04-12T23:50:52.501Z,73.15
2023-04-12T23:53:21.209Z,76.06
2023-04-12T23:55:52.094Z,73.62
2023-04-12T23:58:20.982Z,71.17
